Latest Weather Observations for Richmond

IDN60801

Issued at 2:05 am EDT Sunday 26 October 2014 (issued every 30 minutes, with the page automatically refreshed every 10 minutes)

About weather observations | Map of weather stations | Latest weather observations for NSW | Other Formats
Station Details ID: 067105 Name: RICHMOND RAAF Lat: -33.60 Lon: 150.78 Height: 19.0 m
Data from the previous 72 hours. | See also: Recent months at Richmond
Date/Time
EDT
Temp
°C
App
Temp
°C
Dew
Point
Rel
Hum
%
Delta-T
°C
Wind Press
QNH
hPa
Press
MSL
hPa
Rain
since 9 am
mm
Dir
 
Spd
km/h
Gust
km/h
Spd
kts
Gust
kts
26/02:00am 18.0 19.1 17.0 94 0.6 N 7 9 4 5 1012.9 1012.9 0.8
26/01:30am 18.2 19.5 17.2 94 0.6 WNW 6 9 3 5 1013.5 1013.5 0.8
26/01:09am 18.6 19.8 17.3 92 0.8 NNW 7 9 4 5 1013.8 1013.8 0.8
26/01:00am 18.8 20.1 17.5 92 0.8 N 7 9 4 5 1013.7 1013.7 0.8
26/12:30am 19.2 20.7 17.7 91 0.9 NNW 6 13 3 7 1014.9 1014.9 0.8
26/12:00am 19.5 18.9 17.5 88 1.2 E 17 22 9 12 1015.6 1015.6 0.8
 
Date/Time
EDT
Temp
°C
App
Temp
°C
Dew
Point
Rel
Hum
%
Delta-T
°C
Wind Press
QNH
hPa
Press
MSL
hPa
Rain
since 9 am
mm
Dir
 
Spd
km/h
Gust
km/h
Spd
kts
Gust
kts
25/11:56pm 19.8 19.9 17.4 86 1.5 E 13 20 7 11 1015.7 1015.7 0.8
25/11:30pm 20.3 20.8 17.5 84 1.7 SSW 11 17 6 9 1017.7 1017.7 0.2
25/11:00pm 20.2 20.5 17.8 86 1.5 SW 13 17 7 9 1017.3 1017.3 0.2
25/10:30pm 20.2 21.6 17.8 86 1.5 SW 7 9 4 5 1016.1 1016.1 0.2
25/10:00pm 20.2 21.2 17.8 86 1.5 S 9 11 5 6 1016.0 1016.0 0.2
25/09:42pm 20.2 21.6 17.8 86 1.5 SSE 7 11 4 6 1016.2 1016.2 0.2
25/09:30pm 20.1 21.1 17.7 86 1.5 SSE 9 13 5 7 1016.3 1016.3 0.2
25/09:19pm 20.2 20.8 17.8 86 1.5 S 11 15 6 8 1016.6 1016.6 0.2
25/09:00pm 20.4 21.0 17.8 85 1.6 SSE 11 15 6 8 1016.3 1016.3 0.2
25/08:30pm 20.6 21.8 18.2 86 1.5 SSE 9 15 5 8 1016.0 1016.0 0.2
25/08:00pm 20.5 19.8 18.3 87 1.4 ESE 19 22 10 12 1015.2 1015.2 0.2
25/07:30pm 21.2 20.6 18.8 86 1.5 SE 20 24 11 13 1014.8 1014.8 0.2
25/07:00pm 21.7 22.1 18.1 80 2.2 E 13 19 7 10 1013.8 1013.8 0.2
25/06:36pm 23.1 21.2 17.6 71 3.4 SSE 24 35 13 19 1014.1 1014.1 0.0
25/06:35pm 23.2 21.6 17.4 70 3.6 SSE 22 30 12 16 1014.2 1014.2 0.0
25/06:30pm 23.5 21.6 16.8 66 4.1 SSE 22 32 12 17 1014.0 1014.0 0.0
25/06:00pm 24.7 23.6 17.7 65 4.4 SSE 20 24 11 13 1012.9 1012.9 0.0
25/05:30pm 27.2 25.4 17.9 56 5.9 SSE 24 32 13 17 1012.2 1012.2 0.0
25/05:00pm 30.5 29.2 18.2 47 7.9 SE 22 30 12 16 1011.9 1011.9 0.0
25/04:30pm 30.4 29.1 19.1 50 7.4 SE 24 30 13 16 1011.5 1011.5 0.0
25/04:00pm 31.8 30.6 18.4 45 8.7 SE 22 32 12 17 1011.6 1011.6 0.0
25/03:30pm 31.6 30.2 17.1 41 9.2 SE 20 24 11 13 1011.7 1011.7 0.0
25/03:00pm 32.8 30.7 11.3 27 12.6 ENE 13 20 7 11 1011.7 1011.7 0.0
25/02:30pm 33.6 32.5 12.0 27 12.8 E 9 19 5 10 1012.2 1012.2 0.0
25/02:00pm 33.4 32.0 13.5 30 12.1 E 13 22 7 12 1012.6 1012.6 0.0
25/01:30pm 32.4 30.4 12.6 30 11.8 E 15 20 8 11 1013.0 1013.0 0.0
25/01:00pm 31.9 31.3 14.5 34 10.6 ESE 11 17 6 9 1013.4 1013.4 0.0
25/12:30pm 31.1 30.7 16.3 41 9.3 E 13 22 7 12 1013.8 1013.8 0.0
25/12:00pm 30.3 30.7 15.2 40 9.3 ESE 7 13 4 7 1014.4 1014.4 0.0
25/11:30am 29.7 31.0 17.2 47 7.9 NW 6 7 3 4 1014.8 1014.8 0.0
25/11:00am 28.2 29.5 16.1 47 7.5 NNE 4 9 2 5 1015.0 1015.0 0.0
25/10:30am 26.5 27.9 16.4 53 6.2 N 4 9 2 5 1015.3 1015.3 0.0
25/10:00am 24.8 27.0 17.5 64 4.6 NNE 2 7 1 4 1015.4 1015.4 0.0
25/09:30am 22.8 24.1 17.5 72 3.3 N 7 11 4 6 1015.6 1015.6 0.0
25/08:30am 20.1 22.5 17.1 83 1.8 CALM 0 0 0 0 1015.5 1015.5 0.0
25/08:00am 18.9 21.2 16.7 87 1.3 CALM 0 0 0 0 1015.4 1015.4 0.0
25/07:30am 17.5 19.4 15.7 89 1.1 CALM 0 0 0 0 1015.1 1015.1 0.0
25/07:00am 16.0 17.8 15.4 96 0.3 CALM 0 0 0 0 1014.7 1014.7 0.0
25/06:30am 15.1 16.2 14.5 96 0.3 S 2 7 1 4 1014.2 1014.2 0.0
25/06:11am 14.7 15.9 13.9 95 0.4 CALM 0 0 0 0 1013.7 1013.7 0.0
25/06:00am 14.9 15.4 14.1 95 0.5 WSW 4 6 2 3 1013.7 1013.7 0.0
25/05:37am 15.9 16.6 15.6 98 0.2 W 6 9 3 5 1013.1 1013.1 0.0
25/05:30am 15.3 15.7 14.8 97 0.3 W 6 9 3 5 1013.0 1013.0 0.0
25/05:00am 15.3 16.6 14.2 93 0.6 CALM 0 0 0 0 1012.7 1012.7 0.0
25/04:56am 16.2 18.0 15.6 96 0.4 CALM 0 0 0 0 1012.6 1012.6 0.0
25/04:45am 16.2 18.0 15.4 95 0.5 CALM 0 0 0 0 1012.6 1012.6 0.0
25/04:30am 16.9 18.9 16.1 95 0.5 CALM 0 0 0 0 1012.5 1012.5 0.0
25/04:28am 16.7 18.6 15.7 94 0.6 CALM 0 0 0 0 1012.5 1012.5 0.0
25/04:22am 17.2 19.4 16.4 95 0.5 CALM 0 0 0 0 1012.5 1012.5 0.0
25/04:02am 16.6 18.3 15.3 92 0.8 CALM 0 0 0 0 1012.4 1012.4 0.0
25/04:00am 17.1 19.1 16.0 93 0.6 CALM 0 0 0 0 1012.3 1012.3 0.0
25/03:30am 17.7 19.9 16.4 92 0.8 CALM 0 0 0 0 1012.3 1012.3 0.0
25/03:23am 17.8 20.0 16.5 92 0.8 CALM 0 0 0 0 1012.3 1012.3 0.0
25/03:00am 18.4 20.7 16.7 90 1.0 CALM 0 0 0 0 1012.2 1012.2 0.0
25/02:30am 19.0 21.4 17.0 88 1.2 CALM 0 0 0 0 1012.2 1012.2 0.0
25/02:00am 19.9 20.6 17.1 84 1.7 SW 9 13 5 7 1012.3 1012.3 0.0
25/01:30am 19.9 21.0 17.1 84 1.7 W 7 9 4 5 1012.2 1012.2 0.0
25/01:00am 20.6 21.4 17.2 81 2.1 SSW 9 13 5 7 1012.3 1012.3 0.0
25/12:30am 21.2 21.3 17.4 79 2.3 SSW 13 17 7 9 1012.4 1012.4 0.0
25/12:00am 21.2 23.1 17.6 80 2.2 SE 4 7 2 4 1012.1 1012.1 0.0
 
Date/Time
EDT
Temp
°C
App
Temp
°C
Dew
Point
Rel
Hum
%
Delta-T
°C
Wind Press
QNH
hPa
Press
MSL
hPa
Rain
since 9 am
mm
Dir
 
Spd
km/h
Gust
km/h
Spd
kts
Gust
kts
24/11:30pm 21.5 21.7 17.7 79 2.3 SW 13 17 7 9 1012.1 1012.1 0.0
24/11:00pm 21.4 23.1 17.2 77 2.6 SW 4 11 2 6 1011.9 1011.9 0.0
24/10:30pm 23.0 22.9 17.0 69 3.7 E 13 17 7 9 1011.6 1011.6 0.0
24/10:00pm 23.6 22.9 17.3 67 3.9 E 17 22 9 12 1011.9 1011.9 0.0
24/09:30pm 23.2 24.6 17.9 72 3.3 ENE 7 13 4 7 1012.7 1012.7 0.0
24/09:00pm 23.3 24.2 17.5 70 3.6 ENE 9 11 5 6 1012.8 1012.8 0.0
24/08:30pm 24.0 24.2 17.7 68 3.9 E 13 15 7 8 1012.1 1012.1 0.0
24/08:00pm 24.2 24.3 17.4 65 4.2 ENE 13 17 7 9 1011.9 1011.9 0.0
24/07:30pm 25.1 24.5 17.6 63 4.7 ENE 17 20 9 11 1011.6 1011.6 0.0
24/07:00pm 25.8 25.1 17.4 59 5.3 ENE 17 20 9 11 1011.4 1011.4 0.0
24/06:30pm 26.9 26.1 17.1 55 6.1 E 17 22 9 12 1011.2 1011.2 0.0
24/06:00pm 28.4 26.8 16.0 47 7.7 E 19 24 10 13 1011.1 1011.1 0.0
24/05:30pm 29.4 26.8 14.8 41 8.9 NE 22 28 12 15 1010.9 1010.9 0.0
24/05:00pm 30.2 27.5 14.7 39 9.5 NE 22 28 12 15 1011.1 1011.1 0.0
24/04:30pm 30.1 27.2 15.0 40 9.2 NE 24 32 13 17 1011.5 1011.5 0.0
24/04:00pm 29.6 26.9 15.7 43 8.6 NE 24 30 13 16 1012.1 1012.1 0.0
24/03:30pm 29.6 27.3 15.7 43 8.6 NE 22 30 12 16 1012.6 1012.6 0.0
24/03:00pm 30.0 26.4 14.1 37 9.6 NE 26 35 14 19 1013.2 1013.2 0.0
24/02:30pm 29.3 26.5 15.4 42 8.5 NE 24 32 13 17 1013.8 1013.8 0.0
24/02:00pm 28.8 26.7 15.3 43 8.3 ENE 20 24 11 13 1014.7 1014.7 0.0
24/01:30pm 27.8 26.8 16.7 50 6.9 ENE 17 24 9 13 1015.5 1015.5 0.0
24/01:00pm 26.3 25.1 17.1 57 5.7 NE 19 26 10 14 1016.2 1016.2 0.0
24/12:30pm 25.4 25.1 17.3 61 5.0 ENE 15 22 8 12 1017.0 1017.0 0.0
24/12:00pm 23.7 23.9 17.7 69 3.7 ENE 13 20 7 11 1017.7 1017.7 0.0
24/11:30am 22.6 23.7 17.9 75 2.9 E 9 13 5 7 1018.6 1018.6 0.0
24/11:00am 21.6 22.9 17.6 78 2.5 NNE 7 15 4 8 1019.2 1019.2 0.0
24/10:30am 20.5 21.4 16.7 79 2.3 NNE 7 13 4 7 1019.8 1019.8 0.0
24/10:00am 19.8 20.0 16.8 83 1.8 NE 11 19 6 10 1019.6 1019.6 0.0
24/09:30am 20.0 20.9 16.2 79 2.3 NE 6 11 3 6 1020.4 1020.4 0.0
24/09:00am 19.6 20.3 16.1 80 2.1 N 7 13 4 7 1020.4 1020.4 1.0
24/08:30am 18.9 19.2 15.9 83 1.8 NW 9 13 5 7 1020.3 1020.3 1.0
24/08:00am 18.7 20.2 15.8 83 1.7 WSW 2 7 1 4 1020.5 1020.5 1.0
24/07:30am 18.0 19.2 16.0 88 1.2 SE 4 7 2 4 1020.1 1020.1 1.0
24/07:03am 17.6 17.9 16.1 91 0.9 S 9 11 5 6 1020.6 1020.6 1.0
24/07:00am 17.5 17.8 16.0 91 0.9 SSE 9 11 5 6 1020.5 1020.5 1.0
24/06:32am 17.4 15.9 16.4 94 0.6 SSW 19 24 10 13 1020.5 1020.5 1.0
24/06:30am 17.4 15.9 16.4 94 0.6 SSW 19 24 10 13 1020.4 1020.4 1.0
24/06:22am 17.6 17.4 16.8 95 0.5 SSW 13 20 7 11 1020.3 1020.3 1.0
24/06:00am 17.5 15.9 16.5 94 0.6 E 20 24 11 13 1018.3 1018.3 1.0
24/05:30am 17.5 18.4 16.2 92 0.8 NW 6 11 3 6 1019.3 1019.3 0.8
24/05:00am 17.6 16.5 16.3 92 0.8 NE 17 19 9 10 1018.9 1018.9 0.8
24/04:30am 17.4 17.8 16.3 93 0.7 N 9 11 5 6 1019.8 1019.8 0.8
24/04:00am 18.1 18.5 16.4 90 1.0 WSW 9 13 5 7 1020.4 1020.4 0.8
24/03:55am 18.2 18.6 16.4 89 1.1 WSW 9 13 5 7 1020.4 1020.4 0.8
24/03:30am 18.2 16.7 16.7 91 0.9 SW 20 28 11 15 1020.7 1020.7 0.4
24/03:02am 17.2 17.6 16.2 94 0.6 W 9 11 5 6 1019.4 1019.4 0.4
24/03:00am 17.1 17.8 16.1 94 0.6 WNW 7 11 4 6 1019.4 1019.4 0.4
24/02:51am 17.1 17.0 16.0 93 0.6 W 11 15 6 8 1019.4 1019.4 0.4
24/02:30am 17.4 18.2 16.3 93 0.7 WSW 7 9 4 5 1019.4 1019.4 0.4
24/02:00am 17.4 17.5 16.4 94 0.6 SSW 11 15 6 8 1020.2 1020.2 0.4
24/01:40am 17.1 16.7 16.1 94 0.6 SSW 13 15 7 8 1020.6 1020.6 0.4
24/01:30am 17.0 17.3 16.0 94 0.6 SSW 9 13 5 7 1020.5 1020.5 0.4
24/01:00am 16.8 16.6 15.7 93 0.6 SSW 11 13 6 7 1020.6 1020.6 0.4
24/12:30am 17.3 17.2 16.0 92 0.8 SSW 11 15 6 8 1020.2 1020.2 0.4
24/12:00am 17.3 18.0 16.0 92 0.8 WSW 7 11 4 6 1020.3 1020.3 0.4
 
Date/Time
EDT
Temp
°C
App
Temp
°C
Dew
Point
Rel
Hum
%
Delta-T
°C
Wind Press
QNH
hPa
Press
MSL
hPa
Rain
since 9 am
mm
Dir
 
Spd
km/h
Gust
km/h
Spd
kts
Gust
kts
23/11:30pm 17.6 18.2 15.8 89 1.1 S 7 7 4 4 1020.1 1020.1 0.4
23/11:00pm 18.4 18.4 16.2 87 1.3 SW 11 15 6 8 1020.3 1020.3 0.4
23/10:30pm 18.6 19.0 16.4 87 1.3 SW 9 11 5 6 1020.3 1020.3 0.4
23/10:00pm 18.8 19.2 16.4 86 1.4 SSW 9 11 5 6 1020.1 1020.1 0.4
23/09:30pm 19.1 19.4 16.1 83 1.8 SW 9 13 5 7 1019.7 1019.7 0.4
23/09:00pm 20.2 19.9 16.4 79 2.3 WSW 13 19 7 10 1019.3 1019.3 0.4
23/08:30pm 21.2 20.4 16.2 73 3.0 SE 15 19 8 10 1018.4 1018.4 0.4
23/08:00pm 21.0 20.3 16.4 75 2.8 E 15 19 8 10 1017.7 1017.7 0.4
23/07:30pm 21.5 21.9 16.2 72 3.2 S 9 17 5 9 1018.4 1018.4 0.4
23/07:00pm 21.4 21.0 16.1 72 3.2 WSW 13 19 7 10 1018.2 1018.2 0.4
23/06:30pm 22.0 19.7 15.6 67 3.8 SW 22 30 12 16 1017.0 1017.0 0.4
23/06:00pm 22.8 21.2 14.9 61 4.7 SSE 17 24 9 13 1016.1 1016.1 0.4
23/05:30pm 24.7 20.6 14.8 54 5.9 ESE 30 37 16 20 1015.6 1015.6 0.4
23/05:00pm 23.3 22.2 14.3 57 5.3 N 13 20 7 11 1015.9 1015.9 0.2
23/04:56pm 23.4 22.0 13.3 53 5.9 N 13 20 7 11 1015.8 1015.8 0.2
23/04:52pm 28.4 24.2 7.6 27 11.2 E 19 28 10 15 1016.0 1016.0 0.2
23/04:30pm 23.3 23.2 13.2 53 5.8 W 6 15 3 8 1015.7 1015.7 0.0
23/04:20pm 23.6 21.3 12.9 51 6.2 SW 17 24 9 13 1015.7 1015.7 0.0
23/04:01pm 25.8 24.0 9.6 36 8.9 NW 9 11 5 6 1015.3 1015.3 0.0
23/04:00pm 25.8 24.0 9.6 36 8.9 NW 9 11 5 6 1015.2 1015.2 0.0
23/03:30pm 27.7 22.6 7.5 28 10.8 WNW 24 32 13 17 1014.9 1014.9 0.0
23/03:00pm 30.3 28.2 11.3 31 11.0 ESE 13 22 7 12 1014.7 1014.7 0.0
23/02:30pm 31.4 28.0 11.2 29 11.7 ESE 20 28 11 15 1014.7 1014.7 0.0
23/02:00pm 31.3 28.2 11.7 30 11.4 ESE 19 32 10 17 1015.1 1015.1 0.0
23/01:30pm 30.8 28.3 12.2 32 10.9 ESE 17 20 9 11 1015.6 1015.6 0.0
23/01:00pm 29.4 28.3 14.4 40 9.1 ESE 13 20 7 11 1016.0 1016.0 0.0
23/12:30pm 28.0 28.5 15.6 46 7.6 SE 7 13 4 7 1016.5 1016.5 0.0
23/12:00pm 26.4 26.8 14.8 49 7.0 E 6 7 3 4 1016.8 1016.8 0.0
23/11:30am 25.2 25.8 15.8 56 5.7 SE 7 11 4 6 1017.1 1017.1 0.0
23/11:00am 23.9 24.2 14.6 56 5.5 ESE 6 11 3 6 1017.5 1017.5 0.0
23/10:30am 22.6 23.0 15.2 63 4.4 NE 7 13 4 7 1017.7 1017.7 0.0
23/10:00am 21.0 21.0 14.2 65 3.9 NE 7 11 4 6 1018.0 1018.0 0.0
23/09:30am 19.4 19.5 13.8 70 3.2 NE 6 11 3 6 1018.2 1018.2 0.0
23/09:00am 17.6 17.8 14.1 80 2.0 NNE 6 9 3 5 1018.4 1018.4 0.0
23/08:30am 16.3 17.1 13.6 84 1.5 NNE 2 7 1 4 1018.4 1018.4 0.0
23/08:00am 15.1 15.8 13.5 90 0.9 WNW 2 6 1 3 1018.6 1018.6 0.0
23/07:30am 13.3 13.4 12.8 97 0.3 S 4 6 2 3 1018.5 1018.5 0.0
23/07:00am 12.1 11.5 11.8 98 0.2 SW 6 7 3 4 1018.2 1018.2 0.0
23/06:53am 12.1 12.3 11.8 98 0.2 N 2 7 1 4 1018.2 1018.2 0.0
23/06:50am 12.0 12.5 11.7 98 0.2 CALM 0 2 0 1 1018.2 1018.2 0.0
23/06:39am 11.6 12.0 11.3 98 0.2 CALM 0 0 0 0 1018.0 1018.0 0.0
23/06:30am 11.4 11.4 11.1 98 0.2 N 2 6 1 3 1017.9 1017.9 0.0
23/06:25am 11.4 10.6 11.1 98 0.2 N 6 7 3 4 1017.8 1017.8 0.0
23/06:14am 11.6 10.9 11.3 98 0.2 NNE 6 9 3 5 1017.7 1017.7 0.0
23/06:00am 11.4 11.7 10.8 96 0.3 CALM 0 6 0 3 1017.7 1017.7 0.0
23/05:45am 11.7 12.1 11.1 96 0.3 CALM 0 7 0 4 1017.7 1017.7 0.0
23/05:30am 11.8 12.3 11.5 98 0.2 CALM 0 0 0 0 1017.8 1017.8 0.0
23/05:00am 12.1 12.6 11.6 97 0.3 CALM 0 0 0 0 1017.8 1017.8 0.0
23/04:58am 11.9 12.3 11.4 97 0.3 CALM 0 0 0 0 1017.8 1017.8 0.0
23/04:30am 12.3 12.9 11.8 97 0.3 CALM 0 0 0 0 1017.8 1017.8 0.0
23/04:00am 12.5 13.2 12.2 98 0.2 CALM 0 0 0 0 1017.7 1017.7 0.0
23/03:30am 12.0 12.4 11.2 95 0.4 CALM 0 0 0 0 1018.0 1018.0 0.0
23/03:00am 12.3 12.8 11.5 95 0.4 CALM 0 0 0 0 1018.2 1018.2 0.0
23/02:30am 12.4 12.9 11.5 94 0.5 CALM 0 0 0 0 1018.4 1018.4 0.0

Other Formats:

Comma delimited format used in spreadsheet applications
http://www.bom.gov.au/fwo/IDN60801/IDN60801.95753.axf

JavaScript Object Notation format (JSON) in row-major order
http://www.bom.gov.au/fwo/IDN60801/IDN60801.95753.json